Time;durP1;ratioP1;P1;durP2;ratioP2;P2;SDS_P1;SDS_P2;PMS_P1;PMS_P2;Temp;Humidity;BMP_temperature;BMP_pressure;BME280_temperature;BME280_humidity;BME280_pressure;Samples;Min_cycle;Max_cycle;Signal;HPM_P1;HPM_P2
2021/06/24 00:01:29;;;;;;;13.65;6.55;;;;;;;;;;5028054;28;20036;-61
2021/06/24 00:03:57;;;;;;;13.10;6.25;;;;;;;;;;5046534;28;20043;-61
2021/06/24 00:06:22;;;;;;;10.52;6.55;;;;;;;;;;5028739;28;20040;-61
2021/06/24 00:08:48;;;;;;;10.40;6.47;;;;;;;;;;5031626;28;20044;-60
2021/06/24 00:11:13;;;;;;;12.05;6.85;;;;;;;;;;5042863;28;20035;-61
2021/06/24 00:13:42;;;;;;;14.43;6.20;;;;;;;;;;5057767;28;20032;-62
2021/06/24 00:16:10;;;;;;;8.30;5.63;;;;;;;;;;5058022;28;20032;-61
2021/06/24 00:18:40;;;;;;;11.52;6.22;;;;;;;;;;5040634;28;20111;-61
2021/06/24 00:21:06;;;;;;;12.55;5.88;;;;;;;;;;5058177;28;21988;-61
2021/06/24 00:23:32;;;;;;;7.07;5.50;;;;;;;;;;5028295;28;20122;-61
2021/06/24 00:26:00;;;;;;;8.65;5.50;;;;;;;;;;5046723;28;20066;-61
2021/06/24 00:28:29;;;;;;;11.02;6.25;;;;;;;;;;5048313;28;20039;-62
2021/06/24 00:30:59;;;;;;;8.95;5.47;;;;;;;;;;5047394;28;20060;-60
2021/06/24 00:33:30;;;;;;;10.27;5.95;;;;;;;;;;5044146;28;20037;-61
2021/06/24 00:35:58;;;;;;;7.72;5.15;;;;;;;;;;5038694;28;20498;-60
2021/06/24 00:38:23;;;;;;;10.45;5.82;;;;;;;;;;5035809;28;20019;-60
2021/06/24 00:40:49;;;;;;;6.85;5.13;;;;;;;;;;5040558;28;20151;-61
2021/06/24 00:43:22;;;;;;;12.27;4.70;;;;;;;;;;5056493;28;20028;-60
2021/06/24 00:45:52;;;;;;;14.52;5.80;;;;;;;;;;5039688;28;20024;-60
2021/06/24 00:48:17;;;;;;;6.43;5.03;;;;;;;;;;5037684;28;20066;-60
2021/06/24 00:50:48;;;;;;;8.48;4.68;;;;;;;;;;5024930;28;20032;-61
2021/06/24 00:53:16;;;;;;;6.97;4.38;;;;;;;;;;5048550;28;22027;-61
2021/06/24 00:55:47;;;;;;;11.13;4.80;;;;;;;;;;5056162;28;20017;-60
2021/06/24 00:58:15;;;;;;;10.93;4.78;;;;;;;;;;5057520;28;20111;-60
2021/06/24 01:00:42;;;;;;;7.63;4.25;;;;;;;;;;5056543;28;20154;-60
2021/06/24 01:03:11;;;;;;;6.05;4.60;;;;;;;;;;5057303;28;20024;-60
2021/06/24 01:05:40;;;;;;;6.30;4.35;;;;;;;;;;5056437;28;20120;-60
2021/06/24 01:08:07;;;;;;;11.23;4.70;;;;;;;;;;5057001;28;20036;-60
2021/06/24 01:10:32;;;;;;;8.00;4.55;;;;;;;;;;5057202;28;20036;-60
2021/06/24 01:13:00;;;;;;;8.40;4.28;;;;;;;;;;5048404;28;20024;-59
2021/06/24 01:15:26;;;;;;;7.47;4.28;;;;;;;;;;5057487;28;20939;-62
2021/06/24 01:17:52;;;;;;;6.97;3.90;;;;;;;;;;5022754;28;20059;-62
2021/06/24 01:20:26;;;;;;;7.13;4.10;;;;;;;;;;5057064;28;20038;-60
2021/06/24 01:22:52;;;;;;;6.82;4.40;;;;;;;;;;5055782;28;20055;-61
2021/06/24 01:25:20;;;;;;;4.40;3.65;;;;;;;;;;5055916;28;21015;-60
2021/06/24 01:27:46;;;;;;;7.30;3.80;;;;;;;;;;5047712;28;20093;-64
2021/06/24 01:30:14;;;;;;;6.95;4.22;;;;;;;;;;5027575;28;20039;-60
2021/06/24 01:32:42;;;;;;;8.90;3.88;;;;;;;;;;5054076;28;20024;-62
2021/06/24 01:35:09;;;;;;;8.55;4.47;;;;;;;;;;5053737;28;20044;-61
2021/06/24 01:37:37;;;;;;;6.20;4.10;;;;;;;;;;5036802;28;20025;-61
2021/06/24 01:40:05;;;;;;;7.35;3.92;;;;;;;;;;5055444;28;20444;-61
2021/06/24 01:42:30;;;;;;;5.15;3.50;;;;;;;;;;5042754;28;20040;-61
2021/06/24 01:44:58;;;;;;;12.25;4.93;;;;;;;;;;5041780;28;20055;-61
2021/06/24 01:47:23;;;;;;;8.07;4.35;;;;;;;;;;5056158;28;20036;-63
2021/06/24 01:49:51;;;;;;;7.47;3.97;;;;;;;;;;5042451;28;20025;-63
2021/06/24 01:52:22;;;;;;;6.60;4.97;;;;;;;;;;5047322;28;20033;-61
2021/06/24 01:54:50;;;;;;;4.43;3.63;;;;;;;;;;5057741;28;20028;-61
2021/06/24 01:57:18;;;;;;;7.07;3.75;;;;;;;;;;5039854;28;20127;-61
2021/06/24 01:59:46;;;;;;;5.13;3.63;;;;;;;;;;5042434;28;20037;-61
2021/06/24 02:02:14;;;;;;;4.80;3.85;;;;;;;;;;5039934;28;20135;-61
2021/06/24 02:04:40;;;;;;;8.15;4.00;;;;;;;;;;5057873;28;20074;-61
2021/06/24 02:07:06;;;;;;;5.43;3.72;;;;;;;;;;5042125;28;20630;-60
2021/06/24 02:09:34;;;;;;;9.23;3.33;;;;;;;;;;5058123;28;20075;-60
2021/06/24 02:11:59;;;;;;;8.07;3.42;;;;;;;;;;5031769;28;20179;-60
2021/06/24 02:14:29;;;;;;;5.88;3.38;;;;;;;;;;5058051;28;20028;-60
2021/06/24 02:16:57;;;;;;;7.13;3.35;;;;;;;;;;5041312;28;20166;-61
2021/06/24 02:19:28;;;;;;;12.15;3.45;;;;;;;;;;5057045;28;20131;-61
2021/06/24 02:21:55;;;;;;;4.70;2.83;;;;;;;;;;5049766;28;20032;-61
2021/06/24 02:24:26;;;;;;;14.43;3.10;;;;;;;;;;5032091;28;20029;-61
2021/06/24 02:26:53;;;;;;;4.25;3.22;;;;;;;;;;5058565;28;20027;-61
2021/06/24 02:29:19;;;;;;;5.60;3.20;;;;;;;;;;5059934;28;20139;-61
2021/06/24 02:31:48;;;;;;;6.95;3.47;;;;;;;;;;5025151;28;20113;-61
2021/06/24 02:34:20;;;;;;;7.50;3.20;;;;;;;;;;5058676;28;20155;-61
2021/06/24 02:36:48;;;;;;;7.80;3.53;;;;;;;;;;5041998;28;20057;-61
2021/06/24 02:39:19;;;;;;;6.63;3.30;;;;;;;;;;5040234;28;21459;-60
2021/06/24 02:41:44;;;;;;;6.22;3.80;;;;;;;;;;5060399;28;20032;-60
2021/06/24 02:44:10;;;;;;;11.98;3.67;;;;;;;;;;5056979;28;20089;-61
2021/06/24 02:46:38;;;;;;;9.02;4.15;;;;;;;;;;5059510;28;20044;-61
2021/06/24 02:49:04;;;;;;;4.75;3.83;;;;;;;;;;5049546;28;20988;-61
2021/06/24 02:51:31;;;;;;;5.30;3.67;;;;;;;;;;5058830;28;20078;-61
2021/06/24 02:53:59;;;;;;;6.28;3.50;;;;;;;;;;5043780;28;20055;-61
2021/06/24 02:56:27;;;;;;;7.25;4.03;;;;;;;;;;5039435;28;20028;-61
2021/06/24 02:58:53;;;;;;;8.43;3.60;;;;;;;;;;5059509;28;20027;-61
2021/06/24 03:01:21;;;;;;;5.15;4.00;;;;;;;;;;5028508;28;20055;-62
2021/06/24 03:03:49;;;;;;;6.28;3.78;;;;;;;;;;5023145;28;20603;-62
2021/06/24 03:06:17;;;;;;;5.05;3.65;;;;;;;;;;5057258;28;20047;-62
2021/06/24 03:08:43;;;;;;;6.97;3.45;;;;;;;;;;5044688;28;20073;-61
2021/06/24 03:11:08;;;;;;;9.45;4.07;;;;;;;;;;5058147;28;20036;-60
2021/06/24 03:13:33;;;;;;;5.97;3.60;;;;;;;;;;5058159;28;20027;-60
2021/06/24 03:16:02;;;;;;;8.73;4.13;;;;;;;;;;5048889;28;20134;-62
2021/06/24 03:18:28;;;;;;;5.03;3.45;;;;;;;;;;5038296;28;20033;-61
2021/06/24 03:20:54;;;;;;;9.27;3.78;;;;;;;;;;5040195;28;20457;-62
2021/06/24 03:23:24;;;;;;;11.70;4.47;;;;;;;;;;5036816;28;20051;-61
2021/06/24 03:25:53;;;;;;;8.45;4.00;;;;;;;;;;5046549;28;20054;-60
2021/06/24 03:28:22;;;;;;;4.43;4.00;;;;;;;;;;5040692;28;20165;-61
2021/06/24 03:30:47;;;;;;;7.35;4.07;;;;;;;;;;5014843;28;20153;-62
2021/06/24 03:33:15;;;;;;;6.82;4.03;;;;;;;;;;5022549;28;22021;-62
2021/06/24 03:35:44;;;;;;;6.00;4.40;;;;;;;;;;5036526;28;20105;-61
2021/06/24 03:38:12;;;;;;;4.30;3.88;;;;;;;;;;5031679;28;20400;-61
2021/06/24 03:40:39;;;;;;;6.38;4.20;;;;;;;;;;5036810;28;20036;-62
2021/06/24 03:43:05;;;;;;;6.78;4.28;;;;;;;;;;5057828;28;20149;-61
2021/06/24 03:45:33;;;;;;;6.78;3.53;;;;;;;;;;5039452;28;20036;-62
2021/06/24 03:47:58;;;;;;;5.93;4.32;;;;;;;;;;5048384;28;20106;-60
2021/06/24 03:50:26;;;;;;;5.90;4.20;;;;;;;;;;5055709;28;20032;-60
2021/06/24 03:52:51;;;;;;;7.32;3.65;;;;;;;;;;5055993;28;20070;-61
2021/06/24 03:55:19;;;;;;;5.32;3.90;;;;;;;;;;5020811;28;20024;-61
2021/06/24 03:57:47;;;;;;;11.00;4.75;;;;;;;;;;5041760;28;20060;-61
2021/06/24 04:00:16;;;;;;;4.65;3.65;;;;;;;;;;5057941;28;20032;-61
2021/06/24 04:02:43;;;;;;;5.90;3.72;;;;;;;;;;5037499;28;20040;-63
2021/06/24 04:05:09;;;;;;;6.57;3.88;;;;;;;;;;5056537;28;21490;-63
2021/06/24 04:07:37;;;;;;;5.78;3.10;;;;;;;;;;5037426;28;20123;-62
2021/06/24 04:10:05;;;;;;;4.18;3.03;;;;;;;;;;5041686;28;20028;-61
2021/06/24 04:12:33;;;;;;;6.70;2.85;;;;;;;;;;5039335;28;20036;-61
2021/06/24 04:15:02;;;;;;;4.25;3.13;;;;;;;;;;5045046;28;20075;-62
2021/06/24 04:17:30;;;;;;;4.47;3.58;;;;;;;;;;5037290;28;20025;-61
2021/06/24 04:19:56;;;;;;;3.88;2.95;;;;;;;;;;5037592;28;20127;-62
2021/06/24 04:22:26;;;;;;;6.05;3.35;;;;;;;;;;5038992;28;20039;-62
2021/06/24 04:24:54;;;;;;;7.72;3.63;;;;;;;;;;5046045;28;20060;-62
2021/06/24 04:27:20;;;;;;;3.47;3.00;;;;;;;;;;5055934;28;20071;-61
2021/06/24 04:29:51;;;;;;;5.55;2.83;;;;;;;;;;5032059;28;20028;-61
2021/06/24 04:32:20;;;;;;;9.00;3.30;;;;;;;;;;5027035;28;20064;-62
2021/06/24 04:34:45;;;;;;;7.40;3.10;;;;;;;;;;5040420;28;20033;-62
2021/06/24 04:37:18;;;;;;;12.55;5.82;;;;;;;;;;5022351;28;20036;-61
2021/06/24 04:39:46;;;;;;;7.63;4.25;;;;;;;;;;5037243;28;20032;-61
2021/06/24 04:42:14;;;;;;;5.50;3.05;;;;;;;;;;5054832;28;20052;-61
2021/06/24 04:44:42;;;;;;;7.82;3.85;;;;;;;;;;5042695;28;20093;-62
2021/06/24 04:47:12;;;;;;;5.97;3.17;;;;;;;;;;5050690;28;20119;-62
2021/06/24 04:49:43;;;;;;;5.65;2.65;;;;;;;;;;5053488;28;20124;-62
2021/06/24 04:52:09;;;;;;;5.88;2.75;;;;;;;;;;5036150;28;20064;-63
2021/06/24 04:54:35;;;;;;;5.03;2.97;;;;;;;;;;5026523;28;20039;-61
2021/06/24 04:57:02;;;;;;;5.18;3.00;;;;;;;;;;5053963;28;20024;-62
2021/06/24 04:59:28;;;;;;;4.85;2.55;;;;;;;;;;5043398;28;20020;-61
2021/06/24 05:05:02;;;;;;;4.43;2.55;;;;;;;;;;5053028;28;20686;-62
2021/06/24 05:07:27;;;;;;;5.82;2.60;;;;;;;;;;5031476;28;20043;-61
2021/06/24 05:09:53;;;;;;;5.63;3.15;;;;;;;;;;5021143;28;20036;-61
2021/06/24 05:12:18;;;;;;;4.15;3.22;;;;;;;;;;5007249;28;20124;-62
2021/06/24 05:14:46;;;;;;;5.00;2.58;;;;;;;;;;5056570;28;20074;-62
2021/06/24 05:17:14;;;;;;;3.75;2.65;;;;;;;;;;5056327;28;20090;-61
2021/06/24 05:19:43;;;;;;;5.93;2.72;;;;;;;;;;5054319;28;20029;-62
2021/06/24 05:22:11;;;;;;;3.75;2.35;;;;;;;;;;5043434;28;20054;-63
2021/06/24 05:24:38;;;;;;;3.80;2.42;;;;;;;;;;5037272;28;21283;-62
2021/06/24 05:27:06;;;;;;;2.03;1.80;;;;;;;;;;5053689;28;20032;-62
2021/06/24 05:29:47;;;;;;;2.58;1.63;;;;;;;;;;5053914;28;20040;-61
2021/06/24 05:32:16;;;;;;;2.13;1.55;;;;;;;;;;5035540;28;20037;-61
2021/06/24 05:38:16;;;;;;;2.15;1.17;;;;;;;;;;5055860;28;20109;-62
2021/06/24 05:40:44;;;;;;;2.38;1.00;;;;;;;;;;5052670;28;20048;-61
2021/06/24 05:43:09;;;;;;;3.30;0.85;;;;;;;;;;5051084;28;20029;-61
2021/06/24 05:45:38;;;;;;;1.52;0.85;;;;;;;;;;5037421;28;20510;-61
2021/06/24 05:51:41;;;;;;;6.65;1.17;;;;;;;;;;5058572;28;20048;-61
2021/06/24 05:54:11;;;;;;;2.78;0.95;;;;;;;;;;5025809;28;20020;-61
2021/06/24 05:56:40;;;;;;;4.85;0.88;;;;;;;;;;5030034;28;20067;-62
2021/06/24 05:59:05;;;;;;;3.33;1.00;;;;;;;;;;5040201;28;20376;-63
2021/06/24 06:01:31;;;;;;;2.35;1.17;;;;;;;;;;5054810;28;20040;-61
2021/06/24 06:04:01;;;;;;;5.32;1.60;;;;;;;;;;5059585;28;20028;-61
2021/06/24 06:06:27;;;;;;;2.55;1.25;;;;;;;;;;5049123;28;20121;-62
2021/06/24 06:09:00;;;;;;;4.35;1.05;;;;;;;;;;5050836;28;20162;-61
2021/06/24 06:11:28;;;;;;;2.67;0.70;;;;;;;;;;5028730;28;20071;-62
2021/06/24 06:14:18;;;;;;;3.70;0.63;;;;;;;;;;5025011;28;20043;-62
2021/06/24 06:16:46;;;;;;;2.45;1.70;;;;;;;;;;5059117;28;20541;-62
2021/06/24 06:19:14;;;;;;;2.17;1.40;;;;;;;;;;5024176;28;20028;-62
2021/06/24 06:21:39;;;;;;;1.90;1.23;;;;;;;;;;5008210;28;20565;-63
2021/06/24 06:24:14;;;;;;;3.17;1.17;;;;;;;;;;5024144;28;20028;-61
2021/06/24 06:26:42;;;;;;;2.17;1.23;;;;;;;;;;5045068;28;20036;-62
2021/06/24 06:29:14;;;;;;;6.47;1.10;;;;;;;;;;5059277;28;20446;-61
2021/06/24 06:31:40;;;;;;;2.88;1.00;;;;;;;;;;5022302;28;20454;-62
2021/06/24 06:34:09;;;;;;;2.67;0.88;;;;;;;;;;5030716;28;20049;-62
2021/06/24 06:36:35;;;;;;;2.15;0.90;;;;;;;;;;5059265;28;20035;-62
2021/06/24 06:39:03;;;;;;;3.22;1.02;;;;;;;;;;5032228;28;20024;-62
2021/06/24 06:41:31;;;;;;;1.25;0.80;;;;;;;;;;5058196;28;20063;-62
2021/06/24 06:43:56;;;;;;;1.33;0.77;;;;;;;;;;5038685;28;20612;-62
2021/06/24 06:46:24;;;;;;;2.63;1.45;;;;;;;;;;5058996;28;20040;-63
2021/06/24 06:48:50;;;;;;;1.05;0.63;;;;;;;;;;5051931;28;20074;-61
2021/06/24 06:51:23;;;;;;;1.95;1.17;;;;;;;;;;5054929;28;20041;-63
2021/06/24 06:53:51;;;;;;;4.18;1.10;;;;;;;;;;5058414;28;20191;-61
2021/06/24 06:56:17;;;;;;;1.90;0.82;;;;;;;;;;5038154;28;20032;-62
2021/06/24 06:58:46;;;;;;;3.03;0.80;;;;;;;;;;5036599;28;20995;-62
2021/06/24 07:01:16;;;;;;;3.38;0.80;;;;;;;;;;5035604;28;20033;-63
2021/06/24 07:03:42;;;;;;;1.55;0.73;;;;;;;;;;5037528;28;20709;-63
2021/06/24 07:06:07;;;;;;;1.02;0.93;;;;;;;;;;5034039;28;20042;-63
2021/06/24 07:08:33;;;;;;;1.40;0.73;;;;;;;;;;5035087;28;20039;-62
2021/06/24 07:11:01;;;;;;;5.60;1.10;;;;;;;;;;5036070;28;20050;-63
2021/06/24 07:13:32;;;;;;;2.88;0.85;;;;;;;;;;5019000;28;20037;-63
2021/06/24 07:15:57;;;;;;;6.32;0.77;;;;;;;;;;5039276;28;21626;-63
2021/06/24 07:18:30;;;;;;;2.42;0.85;;;;;;;;;;5033369;28;20105;-62
2021/06/24 07:20:58;;;;;;;2.85;0.55;;;;;;;;;;5038639;28;20173;-62
2021/06/24 07:23:24;;;;;;;1.38;0.63;;;;;;;;;;5036867;28;20033;-62
2021/06/24 07:25:52;;;;;;;1.15;0.60;;;;;;;;;;5026490;28;20129;-63
2021/06/24 07:28:17;;;;;;;5.00;0.68;;;;;;;;;;5049194;28;20158;-62
2021/06/24 07:30:49;;;;;;;2.58;0.60;;;;;;;;;;5019977;28;20075;-62
2021/06/24 07:36:49;;;;;;;2.90;0.93;;;;;;;;;;5050126;28;20051;-62
2021/06/24 07:39:17;;;;;;;1.42;0.65;;;;;;;;;;5036689;28;20166;-63
2021/06/24 07:41:43;;;;;;;1.02;0.52;;;;;;;;;;5050528;28;20031;-62
2021/06/24 07:44:11;;;;;;;3.92;0.75;;;;;;;;;;5047273;28;20054;-64
2021/06/24 07:46:38;;;;;;;1.85;0.50;;;;;;;;;;5026761;28;20043;-64
2021/06/24 07:49:42;;;;;;;2.58;0.80;;;;;;;;;;5052741;28;20029;-62
2021/06/24 07:52:10;;;;;;;3.20;0.75;;;;;;;;;;5052262;28;20485;-62
2021/06/24 07:54:37;;;;;;;1.65;1.08;;;;;;;;;;5051146;28;20020;-63
2021/06/24 07:57:02;;;;;;;1.75;0.60;;;;;;;;;;5023091;28;20036;-62
2021/06/24 07:59:28;;;;;;;2.70;0.70;;;;;;;;;;5050720;28;20023;-62
2021/06/24 08:01:58;;;;;;;2.35;0.88;;;;;;;;;;5035845;28;20036;-62
2021/06/24 08:04:23;;;;;;;2.78;1.13;;;;;;;;;;5034291;28;21968;-62
2021/06/24 08:06:52;;;;;;;1.15;0.80;;;;;;;;;;5036595;28;20059;-64
2021/06/24 08:09:20;;;;;;;2.75;0.98;;;;;;;;;;5034611;28;20036;-61
2021/06/24 08:12:06;;;;;;;2.85;1.02;;;;;;;;;;5010934;28;20066;-63
2021/06/24 08:14:32;;;;;;;4.25;1.05;;;;;;;;;;5044221;28;20051;-63
2021/06/24 08:17:02;;;;;;;0.82;0.80;;;;;;;;;;5008615;28;20029;-62
2021/06/24 08:19:30;;;;;;;2.75;1.08;;;;;;;;;;5037633;28;20040;-62
2021/06/24 08:22:20;;;;;;;1.70;0.90;;;;;;;;;;5038226;28;20047;-63
2021/06/24 08:24:48;;;;;;;4.15;0.88;;;;;;;;;;5050725;28;20036;-62
2021/06/24 08:27:13;;;;;;;1.85;0.75;;;;;;;;;;5043656;28;20039;-63
2021/06/24 08:29:43;;;;;;;1.08;0.80;;;;;;;;;;5052159;28;20044;-62
2021/06/24 08:32:11;;;;;;;2.10;0.90;;;;;;;;;;5033774;28;20120;-62
2021/06/24 08:34:37;;;;;;;1.02;0.75;;;;;;;;;;5049648;28;20038;-62
2021/06/24 08:37:37;;;;;;;2.58;0.88;;;;;;;;;;5024661;28;20119;-63
2021/06/24 08:40:07;;;;;;;1.83;0.70;;;;;;;;;;5022298;28;20036;-63
2021/06/24 08:42:33;;;;;;;2.88;1.00;;;;;;;;;;5050247;28;20047;-63
2021/06/24 08:45:01;;;;;;;1.90;0.95;;;;;;;;;;5018902;28;20028;-62
2021/06/24 08:47:30;;;;;;;1.33;0.82;;;;;;;;;;5048888;28;20032;-63
2021/06/24 08:50:02;;;;;;;5.57;1.00;;;;;;;;;;5023489;28;20115;-63
2021/06/24 08:52:30;;;;;;;5.65;0.85;;;;;;;;;;5034793;28;20078;-62
2021/06/24 08:54:55;;;;;;;0.70;0.70;;;;;;;;;;5045928;28;20032;-62
2021/06/24 09:00:27;;;;;;;2.67;1.10;;;;;;;;;;5045435;28;20036;-62
2021/06/24 09:03:00;;;;;;;1.25;0.90;;;;;;;;;;5034426;28;20639;-61
2021/06/24 09:05:45;;;;;;;2.13;1.13;;;;;;;;;;5034863;28;20426;-61
2021/06/24 09:08:11;;;;;;;4.13;0.98;;;;;;;;;;5052274;28;20040;-61
2021/06/24 09:10:36;;;;;;;7.13;1.05;;;;;;;;;;5031316;28;20039;-61
2021/06/24 09:13:05;;;;;;;7.00;1.20;;;;;;;;;;5039604;28;20032;-61
2021/06/24 09:15:37;;;;;;;3.05;1.20;;;;;;;;;;5045707;28;20116;-60
2021/06/24 09:21:17;;;;;;;1.23;1.10;;;;;;;;;;5048976;28;20098;-61
2021/06/24 09:23:44;;;;;;;2.22;0.90;;;;;;;;;;5045917;28;20028;-61
2021/06/24 09:26:14;;;;;;;1.10;0.73;;;;;;;;;;5035863;28;20042;-62
2021/06/24 09:28:43;;;;;;;4.57;0.90;;;;;;;;;;5050487;28;20032;-61
2021/06/24 09:31:27;;;;;;;3.83;1.05;;;;;;;;;;5034020;28;20033;-62
2021/06/24 09:33:56;;;;;;;3.00;0.85;;;;;;;;;;5059109;28;20032;-63
2021/06/24 09:36:34;;;;;;;10.40;1.30;;;;;;;;;;5061033;28;20052;-61
2021/06/24 09:39:03;;;;;;;3.17;1.00;;;;;;;;;;5030537;28;20040;-61
2021/06/24 09:41:31;;;;;;;4.80;1.02;;;;;;;;;;5049826;28;22033;-62
2021/06/24 09:47:17;;;;;;;1.40;0.90;;;;;;;;;;5057739;28;20044;-63
2021/06/24 09:49:45;;;;;;;2.13;0.90;;;;;;;;;;5031525;28;20498;-62
2021/06/24 09:52:18;;;;;;;2.95;0.93;;;;;;;;;;5042929;28;20036;-63
2021/06/24 09:54:46;;;;;;;4.13;0.98;;;;;;;;;;5060631;28;20032;-62
2021/06/24 09:57:36;;;;;;;2.53;0.90;;;;;;;;;;5042637;28;20017;-61
2021/06/24 10:00:25;;;;;;;3.40;0.80;;;;;;;;;;5058994;28;20147;-62
2021/06/24 10:03:15;;;;;;;1.50;0.80;;;;;;;;;;5060064;28;20040;-61
2021/06/24 10:05:40;;;;;;;2.08;1.15;;;;;;;;;;5038424;28;20040;-63
2021/06/24 10:08:06;;;;;;;1.85;0.90;;;;;;;;;;5042711;28;20032;-62
2021/06/24 10:10:35;;;;;;;1.33;0.90;;;;;;;;;;5028538;28;22033;-62
2021/06/24 10:13:00;;;;;;;2.85;1.27;;;;;;;;;;5030224;28;20025;-62
2021/06/24 10:15:28;;;;;;;2.13;1.20;;;;;;;;;;5041179;28;20039;-62
2021/06/24 10:17:56;;;;;;;1.95;0.80;;;;;;;;;;5059230;28;20497;-63
2021/06/24 10:20:25;;;;;;;1.08;0.85;;;;;;;;;;5040394;28;20048;-62
2021/06/24 10:22:57;;;;;;;3.78;1.05;;;;;;;;;;5060186;28;20025;-61
2021/06/24 10:25:30;;;;;;;1.38;1.00;;;;;;;;;;5057998;28;20028;-61
2021/06/24 10:27:58;;;;;;;3.90;1.10;;;;;;;;;;5059914;28;20032;-61
2021/06/24 10:30:36;;;;;;;0.80;0.80;;;;;;;;;;5057902;28;20029;-61
2021/06/24 10:33:06;;;;;;;4.65;1.00;;;;;;;;;;5057395;28;20124;-62
2021/06/24 10:35:42;;;;;;;2.72;1.20;;;;;;;;;;5049691;28;20093;-62
2021/06/24 10:38:08;;;;;;;1.20;0.95;;;;;;;;;;5049638;28;20048;-61
2021/06/24 10:41:09;;;;;;;1.02;0.90;;;;;;;;;;5040068;28;20135;-61
2021/06/24 10:43:43;;;;;;;2.75;1.10;;;;;;;;;;5008854;28;20048;-61
2021/06/24 10:46:18;;;;;;;1.77;1.10;;;;;;;;;;5039425;28;20048;-62
2021/06/24 10:48:43;;;;;;;2.05;0.88;;;;;;;;;;5021842;28;20064;-62
2021/06/24 10:51:16;;;;;;;4.88;1.50;;;;;;;;;;5039028;28;20082;-61
2021/06/24 10:53:46;;;;;;;1.30;1.20;;;;;;;;;;5042800;28;20052;-61
2021/06/24 10:59:49;;;;;;;2.67;1.08;;;;;;;;;;5056127;28;20138;-61
2021/06/24 11:05:51;;;;;;;1.65;0.98;;;;;;;;;;5056057;28;20117;-62
2021/06/24 11:08:32;;;;;;;3.40;0.75;;;;;;;;;;5048681;28;20521;-62
2021/06/24 11:11:04;;;;;;;8.90;1.10;;;;;;;;;;5036354;28;20051;-63
2021/06/24 11:13:40;;;;;;;2.38;1.00;;;;;;;;;;5057950;28;20028;-62
2021/06/24 11:16:21;;;;;;;2.35;1.15;;;;;;;;;;5055458;28;20143;-62
2021/06/24 11:18:50;;;;;;;2.08;1.35;;;;;;;;;;5057235;28;20172;-62
2021/06/24 11:21:18;;;;;;;2.13;1.10;;;;;;;;;;5055607;28;20032;-61
2021/06/24 11:24:08;;;;;;;6.78;1.10;;;;;;;;;;5057551;28;20151;-63
2021/06/24 11:26:42;;;;;;;2.47;0.93;;;;;;;;;;5059212;28;20028;-63
2021/06/24 11:29:11;;;;;;;2.20;1.20;;;;;;;;;;5057520;28;20046;-61
2021/06/24 11:34:28;;;;;;;2.45;0.98;;;;;;;;;;5057317;28;20032;-61
2021/06/24 11:37:08;;;;;;;2.47;0.95;;;;;;;;;;5058009;28;20164;-61
2021/06/24 11:39:36;;;;;;;1.15;1.05;;;;;;;;;;5058945;28;20472;-60
2021/06/24 11:42:14;;;;;;;2.00;1.20;;;;;;;;;;5044183;28;20031;-62
2021/06/24 11:44:43;;;;;;;2.33;1.10;;;;;;;;;;5041893;28;20042;-61
2021/06/24 11:47:13;;;;;;;1.40;1.13;;;;;;;;;;5045404;28;20040;-61
2021/06/24 12:04:05;;;;;;;1.52;1.13;;;;;;;;;;5021182;28;20731;-62
2021/06/24 12:06:42;;;;;;;1.92;1.20;;;;;;;;;;5003943;28;20041;-61
2021/06/24 12:09:08;;;;;;;0.73;0.73;;;;;;;;;;5004140;28;20037;-61
2021/06/24 12:11:37;;;;;;;5.35;1.08;;;;;;;;;;5004924;28;20071;-61
2021/06/24 12:14:17;;;;;;;1.00;1.00;;;;;;;;;;5021459;28;20045;-62
2021/06/24 12:17:17;;;;;;;1.60;1.15;;;;;;;;;;5021586;28;20033;-62
2021/06/24 12:20:06;;;;;;;1.42;1.33;;;;;;;;;;4984084;28;20706;-62
2021/06/24 12:22:32;;;;;;;3.42;1.27;;;;;;;;;;5041277;28;20037;-62
2021/06/24 12:25:02;;;;;;;2.00;1.25;;;;;;;;;;5025739;28;20083;-62
2021/06/24 12:27:40;;;;;;;1.20;1.10;;;;;;;;;;5030127;28;20036;-62
2021/06/24 12:30:08;;;;;;;1.52;1.20;;;;;;;;;;5024342;28;20052;-60
2021/06/24 12:32:33;;;;;;;1.30;0.90;;;;;;;;;;5056927;28;20039;-62
2021/06/24 12:38:30;;;;;;;2.38;1.05;;;;;;;;;;5058416;28;20047;-62
2021/06/24 12:41:08;;;;;;;1.75;1.30;;;;;;;;;;5025825;28;20519;-62
2021/06/24 12:43:34;;;;;;;1.45;0.90;;;;;;;;;;5027481;28;20063;-62
2021/06/24 12:46:03;;;;;;;1.33;1.23;;;;;;;;;;5055428;28;21933;-62
2021/06/24 12:48:44;;;;;;;3.13;1.30;;;;;;;;;;5055519;28;20494;-62
2021/06/24 12:51:16;;;;;;;1.27;1.00;;;;;;;;;;5054447;28;20506;-61
2021/06/24 12:53:45;;;;;;;1.05;0.95;;;;;;;;;;5055395;28;20063;-62
2021/06/24 12:56:22;;;;;;;1.20;1.10;;;;;;;;;;5046454;28;20048;-62
2021/06/24 12:59:14;;;;;;;1.52;0.90;;;;;;;;;;5056105;28;20031;-62
2021/06/24 13:01:43;;;;;;;2.30;1.13;;;;;;;;;;5041098;28;20032;-61
2021/06/24 13:04:45;;;;;;;1.83;1.25;;;;;;;;;;5008661;28;20037;-62
2021/06/24 13:07:13;;;;;;;1.48;1.00;;;;;;;;;;5027681;28;20036;-61
2021/06/24 13:09:45;;;;;;;2.30;1.05;;;;;;;;;;5036562;28;20033;-62
2021/06/24 13:12:15;;;;;;;2.45;1.15;;;;;;;;;;5025808;28;20047;-61
2021/06/24 13:14:47;;;;;;;2.17;1.40;;;;;;;;;;5036516;28;20041;-62
2021/06/24 13:17:14;;;;;;;1.40;1.10;;;;;;;;;;5037618;28;20028;-61
2021/06/24 13:22:46;;;;;;;1.23;1.02;;;;;;;;;;5044059;28;20032;-62
2021/06/24 13:25:27;;;;;;;1.50;1.08;;;;;;;;;;5056683;28;20032;-62
2021/06/24 13:27:52;;;;;;;2.92;1.17;;;;;;;;;;5055570;28;20028;-61
2021/06/24 13:30:20;;;;;;;1.13;1.10;;;;;;;;;;5023670;28;20028;-62
2021/06/24 13:32:48;;;;;;;4.10;0.90;;;;;;;;;;5056216;28;20028;-62
2021/06/24 13:35:26;;;;;;;1.55;0.95;;;;;;;;;;5037617;28;20024;-62
2021/06/24 13:37:53;;;;;;;4.38;1.20;;;;;;;;;;5055983;28;20052;-62
2021/06/24 13:40:26;;;;;;;1.42;0.90;;;;;;;;;;5045571;28;20176;-63
2021/06/24 13:42:56;;;;;;;1.23;1.13;;;;;;;;;;5046101;28;20032;-63
2021/06/24 13:45:25;;;;;;;2.42;1.15;;;;;;;;;;5055171;28;20115;-62
2021/06/24 13:47:50;;;;;;;6.07;1.00;;;;;;;;;;5037469;28;20122;-63
2021/06/24 13:50:16;;;;;;;5.18;1.20;;;;;;;;;;5035960;28;20036;-62
2021/06/24 13:52:42;;;;;;;3.00;1.30;;;;;;;;;;5025666;28;20490;-63
2021/06/24 13:55:08;;;;;;;1.00;0.90;;;;;;;;;;5054941;28;20024;-64
2021/06/24 13:57:34;;;;;;;1.58;0.93;;;;;;;;;;5040177;28;20029;-63
2021/06/24 14:00:00;;;;;;;1.17;1.08;;;;;;;;;;5040853;28;20059;-63
2021/06/24 14:02:25;;;;;;;0.70;0.70;;;;;;;;;;5024076;28;20024;-62
2021/06/24 14:05:21;;;;;;;1.75;1.13;;;;;;;;;;5059082;28;20036;-62
2021/06/24 14:07:47;;;;;;;6.68;1.50;;;;;;;;;;5059643;28;20135;-62
2021/06/24 14:10:13;;;;;;;1.20;1.10;;;;;;;;;;5023764;28;20472;-63
2021/06/24 14:12:38;;;;;;;1.52;1.17;;;;;;;;;;5042979;28;20051;-63
2021/06/24 14:15:09;;;;;;;2.45;1.30;;;;;;;;;;5033506;28;20036;-64
2021/06/24 14:17:37;;;;;;;3.72;1.60;;;;;;;;;;5043595;28;20506;-64
2021/06/24 14:20:05;;;;;;;2.97;1.30;;;;;;;;;;5041021;28;20036;-64
2021/06/24 14:22:33;;;;;;;1.70;1.30;;;;;;;;;;5026121;28;20058;-64
2021/06/24 14:25:01;;;;;;;4.75;1.25;;;;;;;;;;5041937;28;20078;-64
2021/06/24 14:27:29;;;;;;;5.88;1.33;;;;;;;;;;5040573;28;20028;-65
2021/06/24 14:29:55;;;;;;;1.52;1.00;;;;;;;;;;5049507;28;20023;-64
2021/06/24 14:32:23;;;;;;;0.90;0.82;;;;;;;;;;5057444;28;20035;-63
2021/06/24 14:34:51;;;;;;;2.00;1.17;;;;;;;;;;5038636;28;20206;-64
2021/06/24 14:37:19;;;;;;;2.70;1.15;;;;;;;;;;5042745;28;20091;-64
2021/06/24 14:39:47;;;;;;;1.20;0.90;;;;;;;;;;5035927;28;20059;-63
2021/06/24 14:42:15;;;;;;;1.52;0.80;;;;;;;;;;5056739;28;20063;-62
2021/06/24 14:44:43;;;;;;;3.17;0.85;;;;;;;;;;5041388;28;20103;-64
2021/06/24 14:47:09;;;;;;;0.90;0.90;;;;;;;;;;5045709;28;20028;-63
2021/06/24 14:49:38;;;;;;;2.00;0.85;;;;;;;;;;5039454;28;20028;-63
2021/06/24 14:52:07;;;;;;;1.23;0.90;;;;;;;;;;5024032;28;20044;-63
2021/06/24 14:54:34;;;;;;;2.08;1.02;;;;;;;;;;5047515;28;20023;-63
2021/06/24 14:57:02;;;;;;;0.82;0.73;;;;;;;;;;5052450;28;20552;-63
2021/06/24 14:59:33;;;;;;;0.95;0.68;;;;;;;;;;5047660;28;20043;-64
2021/06/24 15:01:59;;;;;;;4.15;1.20;;;;;;;;;;5048062;28;20085;-64
2021/06/24 15:04:27;;;;;;;2.38;0.95;;;;;;;;;;5052451;28;20020;-63
2021/06/24 15:06:53;;;;;;;2.13;1.67;;;;;;;;;;5028911;28;20056;-64
2021/06/24 15:09:18;;;;;;;2.05;1.20;;;;;;;;;;5054058;28;20468;-63
2021/06/24 15:11:45;;;;;;;1.20;1.10;;;;;;;;;;5054875;28;20216;-64
2021/06/24 15:14:15;;;;;;;2.22;1.13;;;;;;;;;;5049057;28;20123;-64
2021/06/24 15:16:42;;;;;;;2.08;1.10;;;;;;;;;;5053761;28;20043;-63
2021/06/24 15:19:07;;;;;;;1.00;0.82;;;;;;;;;;5038593;28;20147;-63
2021/06/24 15:21:35;;;;;;;1.75;1.05;;;;;;;;;;5042239;28;20028;-64
2021/06/24 15:24:02;;;;;;;2.38;1.25;;;;;;;;;;5056246;28;20081;-63
2021/06/24 15:26:30;;;;;;;3.42;1.33;;;;;;;;;;5030757;28;20043;-64
2021/06/24 15:28:56;;;;;;;1.33;1.10;;;;;;;;;;5041584;28;20035;-63
2021/06/24 15:31:21;;;;;;;3.85;1.05;;;;;;;;;;5025710;28;20028;-63
2021/06/24 15:33:49;;;;;;;1.45;1.27;;;;;;;;;;5056445;28;20039;-63
2021/06/24 15:36:17;;;;;;;1.13;0.90;;;;;;;;;;5037907;28;20044;-63
2021/06/24 15:38:43;;;;;;;1.23;0.95;;;;;;;;;;5055924;28;20055;-63
2021/06/24 15:41:08;;;;;;;2.67;1.00;;;;;;;;;;5056811;28;20028;-63
2021/06/24 15:43:39;;;;;;;3.30;1.20;;;;;;;;;;5038219;28;20037;-63
2021/06/24 15:46:04;;;;;;;2.25;0.95;;;;;;;;;;5038356;28;20051;-63
2021/06/24 15:48:30;;;;;;;1.20;1.10;;;;;;;;;;5055426;28;20032;-64
2021/06/24 15:54:32;;;;;;;2.08;1.00;;;;;;;;;;5055742;28;20092;-64